Monticello, New Mexico
Current Conditions -  °F | °C
As of 6:53 PM on Wednesday 22 Oct 2014 (Local Time) from KTCS Reporting Station
Clear Clear  
Wind Chill: 68°   Ceiling: Unl
Heat Index: 68°   Visibility: 10mi
Dew Point: 48°   Wind: 5mph
Humidity: 49%   Direction: 200°SSW
Pressure: 30.11"   Gusts: NA
Location:  33.4°N, 107.45°W
Report Text: KTCS 230053Z AUTO 20004KT 10SM CLR 20/09 A3011 RMK AO2 SLP144 T02000089 TSNO
Loading
Personal Weather Stations






























Interactive Weather Map
Tropical Storm Tracking
New forecast layout! Learn more

10-Day Weather Forecast

Advertisements
Track Severe Weather on mobile